Time;durP1;ratioP1;P1;durP2;ratioP2;P2;SDS_P1;SDS_P2;PMS_P1;PMS_P2;Temp;Humidity;BMP_temperature;BMP_pressure;BME280_temperature;BME280_humidity;BME280_pressure;Samples;Min_cycle;Max_cycle;Signal;HPM_P1;HPM_P2
2022/09/07 00:04:29;;;;;;;14.52;12.85;;;;;;;13.65;100.00;96632.22;10371581;28;20288;-73
2022/09/07 00:09:29;;;;;;;19.45;14.88;;;;;;;13.51;100.00;96627.75;10372070;28;20197;-73
2022/09/07 00:14:29;;;;;;;16.98;15.27;;;;;;;13.61;100.00;96635.41;10370978;28;20550;-73
2022/09/07 00:19:30;;;;;;;17.23;14.40;;;;;;;13.68;100.00;96636.34;10371576;28;20212;-72
2022/09/07 00:24:30;;;;;;;19.02;15.65;;;;;;;13.71;100.00;96623.63;10370779;28;20272;-73
2022/09/07 00:29:30;;;;;;;15.50;13.35;;;;;;;13.90;100.00;96619.69;10370793;28;20201;-72
2022/09/07 00:34:31;;;;;;;14.77;12.70;;;;;;;13.97;100.00;96617.13;10370312;28;20642;-73
2022/09/07 00:39:32;;;;;;;16.13;14.00;;;;;;;13.88;100.00;96610.31;10370160;28;20620;-73
2022/09/07 00:44:54;;;;;;;14.63;12.88;;;;;;;13.81;100.00;96607.56;10369707;28;20189;-73
2022/09/07 00:49:58;;;;;;;14.60;13.18;;;;;;;13.84;100.00;96603.75;10370137;28;20209;-73
2022/09/07 00:55:02;;;;;;;15.15;13.60;;;;;;;13.88;100.00;96589.25;10351960;28;20244;-72
2022/09/07 01:00:03;;;;;;;15.98;12.32;;;;;;;13.98;100.00;96583.69;10350699;28;20287;-73
2022/09/07 01:05:16;;;;;;;13.43;12.02;;;;;;;14.05;100.00;96579.34;10368814;28;20198;-72
2022/09/07 01:10:17;;;;;;;13.52;12.13;;;;;;;14.11;100.00;96575.19;10352404;28;20217;-73
2022/09/07 01:15:19;;;;;;;14.82;13.18;;;;;;;13.98;100.00;96571.38;10368675;28;20201;-72
2022/09/07 01:20:28;;;;;;;15.65;13.75;;;;;;;13.92;100.00;96569.47;10368929;28;20190;-72
2022/09/07 01:25:41;;;;;;;15.32;13.30;;;;;;;13.91;100.00;96579.16;10369032;28;20197;-72
2022/09/07 01:30:51;;;;;;;14.65;12.65;;;;;;;13.88;100.00;96576.88;10351096;28;20300;-72
2022/09/07 01:36:12;;;;;;;14.88;13.38;;;;;;;13.94;100.00;96566.66;10368161;28;20209;-73
2022/09/07 01:41:36;;;;;;;16.50;13.50;;;;;;;13.93;100.00;96572.91;10350600;28;20215;-73
2022/09/07 01:46:47;;;;;;;14.68;13.02;;;;;;;13.89;100.00;96562.72;10359597;28;20560;-72
2022/09/07 01:51:52;;;;;;;15.02;13.18;;;;;;;13.97;100.00;96567.09;10367145;28;20283;-72
2022/09/07 01:56:56;;;;;;;14.05;12.65;;;;;;;14.02;100.00;96566.53;10350275;28;20244;-73
2022/09/07 02:02:03;;;;;;;15.50;12.65;;;;;;;14.03;100.00;96569.00;10350088;28;20248;-73
2022/09/07 02:07:26;;;;;;;15.43;11.55;;;;;;;14.12;100.00;96569.72;10350123;28;20212;-73
2022/09/07 02:12:37;;;;;;;17.48;12.63;;;;;;;14.16;100.00;96560.44;10366684;28;20300;-73
2022/09/07 02:18:04;;;;;;;16.00;12.63;;;;;;;14.26;100.00;96566.25;10349805;28;20224;-73
2022/09/07 02:23:11;;;;;;;15.65;12.13;;;;;;;14.40;100.00;96558.53;10363991;28;20237;-73
2022/09/07 02:28:19;;;;;;;12.77;10.88;;;;;;;14.42;100.00;96538.06;10349369;28;20315;-73
2022/09/07 02:33:20;;;;;;;17.50;12.65;;;;;;;14.28;100.00;96539.72;10366807;28;20235;-73
2022/09/07 02:38:21;;;;;;;15.00;12.60;;;;;;;14.37;100.00;96540.44;10366961;28;20215;-73
2022/09/07 02:43:22;;;;;;;13.95;12.48;;;;;;;14.30;100.00;96536.91;10366133;28;20185;-73
2022/09/07 02:48:46;;;;;;;16.17;13.55;;;;;;;14.07;100.00;96538.66;10366908;28;20197;-74
2022/09/07 02:53:59;;;;;;;17.15;13.20;;;;;;;14.17;100.00;96548.91;10365880;28;20735;-73
2022/09/07 02:59:09;;;;;;;14.63;13.13;;;;;;;14.14;100.00;96541.38;10349160;28;20233;-73
2022/09/07 03:04:31;;;;;;;14.63;13.10;;;;;;;14.18;100.00;96542.66;10352623;28;20193;-73
2022/09/07 03:09:35;;;;;;;14.90;12.70;;;;;;;14.33;100.00;96531.25;10366216;28;20189;-72
2022/09/07 03:14:39;;;;;;;14.73;11.38;;;;;;;14.26;100.00;96529.38;10348416;28;20201;-73
2022/09/07 03:19:39;;;;;;;12.73;11.52;;;;;;;14.33;100.00;96534.72;10365252;28;20201;-72
2022/09/07 03:24:40;;;;;;;15.07;12.93;;;;;;;14.24;100.00;96531.38;10365495;28;20189;-73
2022/09/07 03:29:40;;;;;;;17.50;12.57;;;;;;;14.21;100.00;96531.75;10366398;28;20280;-73
2022/09/07 03:34:40;;;;;;;17.13;12.90;;;;;;;14.14;100.00;96543.22;10366064;28;20623;-73
2022/09/07 03:39:41;;;;;;;18.02;13.40;;;;;;;14.02;100.00;96550.75;10365729;28;20642;-73
2022/09/07 03:44:41;;;;;;;17.17;14.23;;;;;;;13.89;100.00;96551.38;10365260;28;20208;-73
2022/09/07 03:49:41;;;;;;;18.73;14.73;;;;;;;13.91;100.00;96550.19;10366163;28;20193;-73
2022/09/07 03:54:42;;;;;;;15.13;13.43;;;;;;;13.93;100.00;96549.19;10365140;28;20189;-73
2022/09/07 03:59:42;;;;;;;16.67;14.48;;;;;;;13.98;100.00;96552.94;10364881;28;20256;-73
2022/09/07 04:04:44;;;;;;;16.92;13.65;;;;;;;13.99;100.00;96549.28;10370816;28;20688;-72
2022/09/07 04:09:45;;;;;;;16.90;14.25;;;;;;;13.84;100.00;96535.28;10371813;28;20189;-72
2022/09/07 04:14:45;;;;;;;16.95;14.98;;;;;;;13.80;100.00;96542.75;10370669;28;20196;-72
2022/09/07 04:19:46;;;;;;;18.83;15.70;;;;;;;13.58;100.00;96551.53;10354616;28;20280;-74
2022/09/07 04:24:46;;;;;;;16.15;14.45;;;;;;;13.54;100.00;96562.41;10371061;28;20291;-73
2022/09/07 04:29:46;;;;;;;18.17;15.52;;;;;;;13.53;100.00;96570.50;10370660;28;20205;-73
2022/09/07 04:34:47;;;;;;;19.50;16.48;;;;;;;13.48;100.00;96570.22;10371122;28;20209;-72
2022/09/07 04:39:48;;;;;;;22.25;15.75;;;;;;;13.72;100.00;96569.16;10370155;28;20279;-72
2022/09/07 04:44:48;;;;;;;19.25;15.77;;;;;;;13.89;100.00;96556.66;10370760;28;20197;-72
2022/09/07 04:49:50;;;;;;;18.77;15.93;;;;;;;14.01;100.00;96557.00;10370539;28;20196;-72
2022/09/07 04:54:50;;;;;;;16.15;14.27;;;;;;;14.13;100.00;96560.81;10369756;28;20197;-72
2022/09/07 04:59:51;;;;;;;19.23;15.32;;;;;;;14.18;100.00;96561.09;10369777;28;20738;-72
2022/09/07 05:04:51;;;;;;;16.35;14.63;;;;;;;14.19;100.00;96556.63;10369917;28;20200;-72
2022/09/07 05:09:52;;;;;;;17.95;14.45;;;;;;;14.22;100.00;96541.25;10369599;28;20189;-73
2022/09/07 05:14:52;;;;;;;18.90;14.02;;;;;;;14.28;100.00;96537.91;10369503;28;20186;-73
2022/09/07 05:19:53;;;;;;;19.92;13.70;;;;;;;14.36;100.00;96533.53;10352855;28;20197;-73
2022/09/07 05:24:54;;;;;;;17.65;15.63;;;;;;;14.41;100.00;96541.69;10326997;28;20194;-72
2022/09/07 05:29:54;;;;;;;17.52;13.95;;;;;;;14.42;100.00;96543.34;10328575;28;20197;-72
2022/09/07 05:34:55;;;;;;;17.83;15.52;;;;;;;14.50;100.00;96542.41;10330375;28;20700;-73
2022/09/07 05:39:55;;;;;;;17.20;15.35;;;;;;;14.75;100.00;96535.03;10328501;28;20189;-72
2022/09/07 05:44:56;;;;;;;21.42;14.68;;;;;;;14.98;100.00;96538.28;10327704;28;20622;-72
2022/09/07 05:49:56;;;;;;;19.50;14.18;;;;;;;15.27;100.00;96533.06;10327389;28;20705;-72
2022/09/07 05:54:56;;;;;;;15.25;13.70;;;;;;;15.95;100.00;96522.78;10362645;28;20328;-73
2022/09/07 05:59:57;;;;;;;14.27;11.25;;;;;;;16.41;100.00;96502.84;10368099;28;20229;-73
2022/09/07 06:04:57;;;;;;;15.15;11.85;;;;;;;16.46;100.00;96491.69;10367197;28;20205;-72
2022/09/07 06:09:58;;;;;;;15.82;13.05;;;;;;;16.27;100.00;96496.69;10350056;28;20324;-73
2022/09/07 06:15:00;;;;;;;16.13;12.50;;;;;;;16.11;100.00;96494.41;10367071;28;20205;-73
2022/09/07 06:20:01;;;;;;;15.60;13.70;;;;;;;15.97;100.00;96496.16;10367392;28;20224;-72
2022/09/07 06:25:02;;;;;;;16.60;13.02;;;;;;;16.10;100.00;96498.88;10366126;28;20703;-73
2022/09/07 06:30:03;;;;;;;15.05;12.98;;;;;;;16.11;100.00;96499.69;10368646;28;20217;-72
2022/09/07 06:35:03;;;;;;;14.70;12.15;;;;;;;16.49;100.00;96507.97;10369919;28;20240;-74
2022/09/07 06:40:04;;;;;;;12.43;10.65;;;;;;;16.68;100.00;96495.00;10374532;28;20191;-73
2022/09/07 06:45:05;;;;;;;12.85;10.60;;;;;;;17.21;100.00;96504.84;10375991;28;20189;-73
2022/09/07 06:50:06;;;;;;;15.35;9.93;;;;;;;17.93;100.00;96499.69;10376238;28;20221;-73
2022/09/07 06:55:07;;;;;;;10.55;9.02;;;;;;;18.53;100.00;96494.16;10375297;28;20529;-73
2022/09/07 07:00:08;;;;;;;9.80;7.88;;;;;;;19.18;100.00;96491.28;10371258;28;20248;-72
2022/09/07 07:05:09;;;;;;;12.40;7.70;;;;;;;19.69;100.00;96470.00;10412911;28;20239;-73
2022/09/07 07:10:09;;;;;;;8.77;6.63;;;;;;;20.19;100.00;96461.91;10398849;28;20622;-71
2022/09/07 07:15:09;;;;;;;9.77;7.32;;;;;;;21.07;100.00;96461.50;10373364;28;20284;-72
2022/09/07 07:20:10;;;;;;;7.35;5.57;;;;;;;21.88;100.00;96451.94;10371887;28;20192;-73
2022/09/07 07:25:10;;;;;;;7.07;5.60;;;;;;;22.46;93.88;96427.16;10372481;28;20498;-73
2022/09/07 07:30:12;;;;;;;5.93;5.20;;;;;;;22.52;91.55;96427.00;10373064;28;20221;-73
2022/09/07 07:35:13;;;;;;;5.72;4.68;;;;;;;22.52;87.06;96396.84;10372333;28;20641;-72
2022/09/07 07:40:14;;;;;;;6.25;5.07;;;;;;;22.29;88.03;96411.88;10373688;28;20189;-72
2022/09/07 07:45:14;;;;;;;9.60;5.53;;;;;;;22.63;86.35;96403.97;10371306;28;20200;-73
2022/09/07 07:50:14;;;;;;;8.23;5.63;;;;;;;22.69;84.13;96386.19;10373737;28;20216;-71
2022/09/07 07:55:15;;;;;;;6.70;5.22;;;;;;;23.11;82.30;96388.50;10372291;28;20235;-72
2022/09/07 08:00:16;;;;;;;5.72;4.22;;;;;;;24.16;77.80;96371.66;10378225;28;20221;-72
2022/09/07 08:05:19;;;;;;;5.18;4.60;;;;;;;24.71;75.73;96373.25;10356096;28;20189;-73
2022/09/07 08:10:27;;;;;;;5.60;4.53;;;;;;;24.82;74.14;96370.66;10370730;28;20275;-73
2022/09/07 08:15:28;;;;;;;7.43;4.80;;;;;;;25.17;72.83;96364.75;10370798;28;20276;-73
2022/09/07 08:20:29;;;;;;;7.90;5.35;;;;;;;25.69;70.52;96354.34;10369983;28;20201;-73
2022/09/07 08:25:29;;;;;;;9.38;4.80;;;;;;;25.81;72.05;96381.75;10371225;28;20227;-73
2022/09/07 08:30:29;;;;;;;6.68;5.15;;;;;;;25.31;70.30;96357.09;10370504;28;20358;-73
2022/09/07 08:35:30;;;;;;;6.65;5.35;;;;;;;25.71;71.64;96385.19;10370206;28;20209;-72
2022/09/07 08:40:31;;;;;;;7.47;5.23;;;;;;;26.87;70.28;96384.16;10371080;28;20195;-72
2022/09/07 08:45:40;;;;;;;6.18;5.57;;;;;;;25.68;72.93;96407.19;10335717;28;20444;-73
2022/09/07 08:50:55;;;;;;;7.65;5.93;;;;;;;25.07;74.17;96399.56;10352406;28;20229;-73
2022/09/07 08:55:59;;;;;;;6.82;5.85;;;;;;;24.06;76.39;96401.78;10361150;28;20672;-73
2022/09/07 09:00:59;;;;;;;8.55;7.15;;;;;;;23.31;80.08;96431.53;10351248;28;20582;-72
2022/09/07 09:06:13;;;;;;;6.95;6.25;;;;;;;23.87;78.11;96406.63;10369438;28;20291;-73
2022/09/07 09:11:25;;;;;;;7.05;6.32;;;;;;;24.09;78.34;96398.63;10366287;28;20732;-73
2022/09/07 09:16:45;;;;;;;7.53;6.82;;;;;;;23.51;78.89;96414.19;10369392;28;20641;-73
2022/09/07 09:21:46;;;;;;;8.98;6.60;;;;;;;24.00;76.65;96395.56;10350786;28;20652;-73
2022/09/07 09:26:52;;;;;;;9.25;7.00;;;;;;;24.07;77.95;96411.41;10366498;28;20205;-72
2022/09/07 09:31:53;;;;;;;11.35;9.73;;;;;;;23.96;78.86;96423.88;10351224;28;20222;-72
2022/09/07 09:36:54;;;;;;;9.98;7.63;;;;;;;23.92;77.84;96417.41;10367341;28;21013;-72
2022/09/07 09:41:57;;;;;;;10.13;7.95;;;;;;;23.34;79.17;96419.56;10367366;28;20193;-73
2022/09/07 09:46:57;;;;;;;9.50;8.10;;;;;;;23.00;82.25;96434.75;10350765;28;20196;-72
2022/09/07 09:51:59;;;;;;;9.63;8.18;;;;;;;22.70;83.60;96434.00;10367002;28;20704;-73
2022/09/07 09:56:59;;;;;;;9.07;8.18;;;;;;;22.79;85.23;96435.22;10366579;28;20229;-73
2022/09/07 10:02:20;;;;;;;9.82;8.63;;;;;;;22.56;86.60;96443.38;10367728;28;20636;-72
2022/09/07 10:07:31;;;;;;;10.00;9.10;;;;;;;21.89;90.66;96466.88;10349968;28;20201;-73
2022/09/07 10:12:33;;;;;;;9.45;8.40;;;;;;;21.81;92.06;96461.91;10366209;28;20213;-72
2022/09/07 10:17:36;;;;;;;13.75;9.27;;;;;;;21.59;92.61;96464.34;10349424;28;20211;-72
2022/09/07 10:22:37;;;;;;;10.48;9.48;;;;;;;21.30;93.47;96460.72;10367039;28;20244;-72
2022/09/07 10:27:39;;;;;;;14.57;9.50;;;;;;;21.49;94.28;96458.78;10366516;28;20236;-71
2022/09/07 10:32:48;;;;;;;10.77;9.68;;;;;;;21.62;93.01;96445.22;10365868;28;20308;-74
2022/09/07 10:38:02;;;;;;;11.02;9.18;;;;;;;21.78;92.00;96445.56;10349593;28;20816;-73
2022/09/07 10:43:18;;;;;;;9.45;7.57;;;;;;;22.41;87.56;96414.53;10365702;28;20272;-73
2022/09/07 10:48:39;;;;;;;12.02;8.35;;;;;;;22.84;85.73;96417.69;10366438;28;20181;-72
2022/09/07 10:53:56;;;;;;;10.10;7.13;;;;;;;22.57;85.92;96420.94;10348787;28;20229;-72
2022/09/07 10:59:05;;;;;;;7.95;5.68;;;;;;;22.70;83.41;96401.16;10365841;28;20259;-72
2022/09/07 11:04:19;;;;;;;8.77;6.57;;;;;;;22.50;83.92;96412.31;10362236;28;20190;-73
2022/09/07 11:09:42;;;;;;;8.25;7.13;;;;;;;22.66;84.75;96419.50;10354809;28;20739;-73
2022/09/07 11:15:06;;;;;;;11.40;7.60;;;;;;;22.41;85.72;96430.56;10352727;28;20792;-72
2022/09/07 11:20:17;;;;;;;10.63;7.30;;;;;;;22.59;85.31;96414.34;10354173;28;20749;-73
2022/09/07 11:25:29;;;;;;;8.70;7.70;;;;;;;23.17;82.99;96403.53;10373927;28;20201;-73
2022/09/07 11:30:36;;;;;;;11.43;6.57;;;;;;;23.17;82.37;96408.88;10345816;28;20228;-72
2022/09/07 11:35:46;;;;;;;9.52;6.57;;;;;;;22.77;82.50;96399.13;10314906;28;20348;-72
2022/09/07 11:41:10;;;;;;;7.85;6.97;;;;;;;22.54;86.10;96427.59;10314361;28;20190;-73
2022/09/07 11:46:31;;;;;;;8.68;6.88;;;;;;;23.56;82.84;96395.53;10331997;28;20206;-72
2022/09/07 11:51:53;;;;;;;11.93;6.80;;;;;;;23.40;80.93;96372.31;10366009;28;20220;-72
2022/09/07 11:57:06;;;;;;;11.50;7.18;;;;;;;23.42;82.00;96387.06;10371822;28;20239;-71
2022/09/07 12:02:14;;;;;;;12.05;6.68;;;;;;;24.05;79.18;96343.97;10353970;28;20198;-72
2022/09/07 12:07:35;;;;;;;7.75;6.38;;;;;;;23.97;78.94;96347.09;10354667;28;20287;-72
2022/09/07 12:12:57;;;;;;;12.43;6.90;;;;;;;24.68;76.61;96327.44;10370165;28;20233;-72
2022/09/07 12:18:03;;;;;;;7.03;6.35;;;;;;;25.51;74.46;96326.88;10353808;28;20197;-72
2022/09/07 12:23:17;;;;;;;11.85;5.93;;;;;;;24.56;76.27;96339.09;10353373;28;20189;-72
2022/09/07 12:28:23;;;;;;;11.80;6.25;;;;;;;25.38;73.30;96300.56;10353713;28;20359;-72
2022/09/07 12:33:29;;;;;;;14.20;6.88;;;;;;;25.61;72.67;96312.72;10362256;28;20228;-71
2022/09/07 12:38:29;;;;;;;9.55;6.05;;;;;;;25.69;73.78;96343.59;10352675;28;20263;-71
2022/09/07 12:43:33;;;;;;;11.18;5.60;;;;;;;25.15;72.21;96301.75;10370748;28;20280;-72
2022/09/07 12:48:48;;;;;;;11.02;5.90;;;;;;;26.06;71.01;96276.34;10369849;28;20194;-71
2022/09/07 12:54:13;;;;;;;8.00;4.47;;;;;;;26.48;65.28;96239.59;10369143;28;20290;-72
2022/09/07 12:59:48;;;;;;;6.15;4.10;;;;;;;27.14;60.46;96190.25;10370283;28;20255;-72
2022/09/07 13:05:04;;;;;;;10.68;4.68;;;;;;;26.35;61.40;96200.63;10368129;28;20212;-72
2022/09/07 13:10:29;;;;;;;7.57;4.07;;;;;;;26.05;61.32;96177.28;10351251;28;20196;-72
2022/09/07 13:15:45;;;;;;;9.43;4.68;;;;;;;25.35;66.29;96242.88;10351322;28;20197;-72
2022/09/07 13:21:05;;;;;;;10.60;5.40;;;;;;;23.92;72.58;96321.09;10353533;28;20185;-72
2022/09/07 13:26:08;;;;;;;20.00;7.63;;;;;;;23.33;89.69;96477.53;10370146;28;20665;-72
2022/09/07 13:31:53;;;;;;;19.65;9.00;;;;;;;21.84;100.00;96434.75;10350513;28;20226;-72
2022/09/07 13:36:53;;;;;;;15.10;8.75;;;;;;;20.72;100.00;96427.63;10310925;28;20296;-73
2022/09/07 13:41:56;;;;;;;16.02;7.70;;;;;;;20.69;100.00;96431.59;10368308;28;20181;-74
2022/09/07 13:47:06;;;;;;;14.95;8.15;;;;;;;19.57;100.00;96416.75;10365236;28;20190;-74
2022/09/07 13:52:26;;;;;;;21.38;7.72;;;;;;;19.23;100.00;96401.19;10353661;28;20316;-74
2022/09/07 13:57:29;;;;;;;17.45;8.25;;;;;;;19.27;100.00;96411.38;10361389;28;20259;-74
2022/09/07 14:02:33;;;;;;;18.60;8.35;;;;;;;19.30;100.00;96419.69;10378188;28;20201;-75
2022/09/07 14:07:34;;;;;;;16.13;9.05;;;;;;;18.87;100.00;96410.66;10399169;28;20193;-75
2022/09/07 14:12:42;;;;;;;17.02;9.45;;;;;;;18.87;100.00;96408.00;10400516;28;20209;-75
2022/09/07 14:18:01;;;;;;;19.90;11.38;;;;;;;18.62;100.00;96418.59;10348348;28;20702;-74
2022/09/07 14:23:01;;;;;;;16.15;11.07;;;;;;;18.45;100.00;96436.03;10348700;28;20189;-75
2022/09/07 14:28:01;;;;;;;24.05;13.18;;;;;;;18.63;100.00;96454.69;10366852;28;20204;-74
2022/09/07 14:33:12;;;;;;;21.48;12.20;;;;;;;19.01;100.00;96453.06;10363368;28;20220;-75
2022/09/07 14:38:21;;;;;;;22.08;11.88;;;;;;;19.07;100.00;96445.03;10343823;28;20251;-74
2022/09/07 14:43:32;;;;;;;17.42;10.90;;;;;;;19.72;100.00;96427.03;10363443;28;20213;-74
2022/09/07 14:48:32;;;;;;;16.52;10.35;;;;;;;20.20;100.00;96420.97;10361050;28;20606;-73
2022/09/07 14:53:33;;;;;;;13.95;8.80;;;;;;;22.26;100.00;96396.34;10362995;28;20275;-73
2022/09/07 14:58:33;;;;;;;13.93;8.73;;;;;;;23.25;100.00;96373.72;10370155;28;20232;-73
2022/09/07 15:03:54;;;;;;;14.68;9.23;;;;;;;23.79;100.00;96370.41;10373752;28;20654;-73
2022/09/07 15:08:54;;;;;;;13.23;9.10;;;;;;;24.34;100.00;96363.25;10373072;28;20189;-72
2022/09/07 15:14:00;;;;;;;14.23;10.75;;;;;;;23.12;100.00;96360.69;10373041;28;20216;-72
2022/09/07 15:19:15;;;;;;;15.57;13.45;;;;;;;21.07;100.00;96344.31;10373624;28;20288;-73
2022/09/07 15:24:15;;;;;;;21.92;16.45;;;;;;;20.56;100.00;96359.88;10372626;28;20201;-72
2022/09/07 15:29:18;;;;;;;24.38;17.63;;;;;;;19.99;100.00;96360.28;10371577;28;20207;-72
2022/09/07 15:34:19;;;;;;;25.17;18.58;;;;;;;19.70;100.00;96362.66;10369032;28;20221;-73
2022/09/07 15:39:21;;;;;;;33.63;22.63;;;;;;;19.40;100.00;96374.03;10370165;28;20197;-73
2022/09/07 15:44:22;;;;;;;26.13;21.85;;;;;;;19.32;100.00;96372.47;10368991;28;20309;-73
2022/09/07 15:49:23;;;;;;;26.33;23.58;;;;;;;19.09;100.00;96373.09;10372165;28;20320;-74
2022/09/07 15:54:23;;;;;;;34.20;26.33;;;;;;;18.84;100.00;96375.78;10374109;28;20221;-74
2022/09/07 15:59:23;;;;;;;38.10;28.23;;;;;;;18.76;100.00;96379.50;10370625;28;20233;-74
2022/09/07 16:04:24;;;;;;;35.53;28.67;;;;;;;18.60;100.00;96364.13;10370424;28;20201;-73
2022/09/07 16:09:24;;;;;;;34.67;28.00;;;;;;;18.56;100.00;96373.53;10353596;28;20188;-74
2022/09/07 16:14:25;;;;;;;34.55;27.50;;;;;;;18.44;100.00;96379.53;10370038;28;20565;-74
2022/09/07 16:19:25;;;;;;;31.95;23.88;;;;;;;18.46;100.00;96376.66;10370876;28;20196;-73
2022/09/07 16:24:27;;;;;;;29.50;20.50;;;;;;;18.34;100.00;96357.97;10370880;28;20269;-74
2022/09/07 16:29:27;;;;;;;25.20;19.73;;;;;;;18.30;100.00;96362.91;10369431;28;20649;-73
2022/09/07 16:34:28;;;;;;;23.88;19.85;;;;;;;18.27;100.00;96367.78;10369546;28;20228;-73
2022/09/07 16:39:29;;;;;;;78.65;42.55;;;;;;;18.06;100.00;96384.88;10370224;28;20205;-73
2022/09/07 16:44:29;;;;;;;33.55;25.40;;;;;;;18.05;100.00;96407.09;10368270;28;20255;-73
2022/09/07 16:49:30;;;;;;;28.45;23.17;;;;;;;18.09;100.00;96411.75;10368991;28;20193;-72
2022/09/07 16:54:31;;;;;;;30.42;24.80;;;;;;;18.05;100.00;96399.13;10370682;28;20217;-72
2022/09/07 16:59:31;;;;;;;34.65;26.50;;;;;;;18.00;100.00;96386.50;10370331;28;20371;-74
2022/09/07 17:04:32;;;;;;;42.65;31.90;;;;;;;17.89;100.00;96358.03;10369281;28;20189;-74
2022/09/07 17:09:32;;;;;;;31.08;24.90;;;;;;;17.87;100.00;96360.88;10370682;28;20203;-73
2022/09/07 17:14:33;;;;;;;31.23;26.02;;;;;;;17.79;100.00;96358.44;10369130;28;20370;-73
2022/09/07 17:19:33;;;;;;;36.35;27.92;;;;;;;17.68;100.00;96383.75;10367421;28;20216;-73
2022/09/07 17:24:33;;;;;;;33.25;28.05;;;;;;;17.58;100.00;96408.06;10368091;28;20670;-74
2022/09/07 17:29:34;;;;;;;30.20;25.80;;;;;;;17.70;100.00;96402.91;10366860;28;20185;-74
2022/09/07 17:34:34;;;;;;;28.17;22.98;;;;;;;17.89;100.00;96403.09;10367059;28;20705;-74
2022/09/07 17:39:34;;;;;;;31.70;22.65;;;;;;;18.01;100.00;96401.41;10365387;28;20288;-73
2022/09/07 17:44:35;;;;;;;25.98;21.75;;;;;;;17.93;100.00;96401.63;10364646;28;20273;-73
2022/09/07 17:49:35;;;;;;;24.98;21.70;;;;;;;18.00;100.00;96391.81;10366335;28;20201;-73
2022/09/07 17:54:36;;;;;;;29.40;23.88;;;;;;;17.93;100.00;96401.63;10366330;28;20311;-73
2022/09/07 17:59:36;;;;;;;25.40;20.15;;;;;;;18.00;100.00;96389.16;10366297;28;20229;-73
2022/09/07 18:04:36;;;;;;;23.15;19.15;;;;;;;18.03;100.00;96387.94;10365946;28;20291;-74
2022/09/07 18:09:37;;;;;;;22.40;18.88;;;;;;;17.94;100.00;96384.72;10365994;28;20684;-74
2022/09/07 18:14:37;;;;;;;22.25;17.60;;;;;;;17.86;100.00;96382.28;10365636;28;20588;-73
2022/09/07 18:19:37;;;;;;;27.85;22.30;;;;;;;17.52;100.00;96400.94;10366023;28;20665;-73
2022/09/07 18:24:38;;;;;;;23.63;19.15;;;;;;;17.56;100.00;96404.78;10367195;28;20542;-74
2022/09/07 18:29:38;;;;;;;28.23;21.73;;;;;;;17.40;100.00;96403.41;10367517;28;20570;-72
2022/09/07 18:34:39;;;;;;;28.65;22.58;;;;;;;17.43;100.00;96421.53;10375369;28;20641;-72
2022/09/07 18:39:39;;;;;;;24.80;17.90;;;;;;;17.68;100.00;96425.34;10375902;28;20247;-73
2022/09/07 18:44:40;;;;;;;21.70;16.65;;;;;;;17.73;100.00;96404.31;10375809;28;20220;-73
2022/09/07 18:49:40;;;;;;;23.00;18.58;;;;;;;17.56;100.00;96398.69;10357868;28;20193;-73
2022/09/07 18:54:40;;;;;;;19.65;14.30;;;;;;;17.69;100.00;96379.25;10375311;28;20308;-72
2022/09/07 18:59:41;;;;;;;20.80;16.20;;;;;;;17.55;100.00;96378.50;10373953;28;20232;-72
2022/09/07 19:04:43;;;;;;;22.45;15.68;;;;;;;17.38;100.00;96378.16;10374521;28;20429;-72
2022/09/07 19:09:43;;;;;;;22.15;15.18;;;;;;;17.35;100.00;96366.16;10374914;28;20189;-72
2022/09/07 19:14:43;;;;;;;22.10;15.30;;;;;;;17.32;100.00;96373.69;10374703;28;20228;-72
2022/09/07 19:19:47;;;;;;;17.75;14.15;;;;;;;17.15;100.00;96362.72;10373509;28;20201;-72
2022/09/07 19:24:47;;;;;;;17.00;13.63;;;;;;;16.98;100.00;96362.34;10371814;28;20188;-72
2022/09/07 19:29:48;;;;;;;15.68;11.82;;;;;;;16.97;100.00;96366.84;10372490;28;20189;-72
2022/09/07 19:34:53;;;;;;;17.15;11.93;;;;;;;16.91;100.00;96349.13;10370922;28;20233;-74
2022/09/07 19:39:53;;;;;;;15.43;12.02;;;;;;;16.76;100.00;96344.81;10373771;28;20283;-72
2022/09/07 19:44:54;;;;;;;17.25;12.85;;;;;;;16.65;100.00;96342.81;10371755;28;20203;-74
2022/09/07 19:49:54;;;;;;;14.98;12.68;;;;;;;16.74;100.00;96330.19;10373348;28;20209;-73
2022/09/07 19:54:56;;;;;;;15.82;13.52;;;;;;;16.62;100.00;96339.75;10373413;28;20344;-73
2022/09/07 19:59:56;;;;;;;18.73;14.00;;;;;;;16.64;100.00;96333.22;10372427;28;20240;-73
2022/09/07 20:04:57;;;;;;;15.65;14.02;;;;;;;16.59;100.00;96339.13;10372629;28;20197;-73
2022/09/07 20:09:58;;;;;;;16.17;13.52;;;;;;;16.62;100.00;96347.69;10372852;28;20683;-73
2022/09/07 20:15:02;;;;;;;19.73;16.08;;;;;;;16.55;100.00;96356.44;10371505;28;20294;-74
2022/09/07 20:20:03;;;;;;;22.73;17.35;;;;;;;16.56;100.00;96367.81;10373275;28;20274;-73
2022/09/07 20:25:24;;;;;;;22.63;18.50;;;;;;;16.47;100.00;96375.13;10373358;28;20193;-74
2022/09/07 20:30:24;;;;;;;22.02;19.55;;;;;;;16.41;100.00;96371.47;10372572;28;20209;-74
2022/09/07 20:35:25;;;;;;;23.27;17.50;;;;;;;16.35;100.00;96374.09;10372516;28;20215;-73
2022/09/07 20:40:27;;;;;;;21.58;18.63;;;;;;;16.28;100.00;96370.63;10372287;28;20196;-74
2022/09/07 20:45:28;;;;;;;27.50;19.48;;;;;;;16.27;100.00;96372.47;10371830;28;20199;-74
2022/09/07 20:50:29;;;;;;;20.42;17.27;;;;;;;16.14;100.00;96362.69;10372243;28;20189;-73
2022/09/07 20:55:29;;;;;;;21.58;16.52;;;;;;;16.05;100.00;96364.69;10371156;28;20201;-72
2022/09/07 21:00:36;;;;;;;23.45;17.40;;;;;;;15.89;100.00;96374.81;10372099;28;20244;-73
2022/09/07 21:05:48;;;;;;;23.42;19.60;;;;;;;15.92;100.00;96374.41;10370253;28;20986;-71
2022/09/07 21:11:35;;;;;;;26.52;21.60;;;;;;;16.14;100.00;96377.72;10357106;28;20233;-71
2022/09/07 21:17:22;;;;;;;24.40;19.35;;;;;;;16.10;100.00;96372.03;10370327;28;20240;-73
2022/09/07 21:22:52;;;;;;;25.52;19.10;;;;;;;16.13;100.00;96370.81;10372319;28;20197;-71
2022/09/07 21:27:53;;;;;;;21.92;19.35;;;;;;;16.02;100.00;96359.00;10387075;28;20276;-71
2022/09/07 21:32:54;;;;;;;25.75;21.02;;;;;;;16.00;100.00;96359.22;10352878;28;20232;-73
2022/09/07 21:37:54;;;;;;;35.78;22.10;;;;;;;16.03;100.00;96364.09;10370228;28;20220;-73
2022/09/07 21:42:54;;;;;;;26.30;20.02;;;;;;;15.99;100.00;96364.69;10370755;28;20189;-73
2022/09/07 21:47:55;;;;;;;23.30;20.33;;;;;;;15.97;100.00;96356.13;10374205;28;20208;-72
2022/09/07 21:52:55;;;;;;;25.95;20.10;;;;;;;15.91;100.00;96347.19;10375908;28;20225;-72
2022/09/07 21:57:56;;;;;;;30.60;21.70;;;;;;;15.92;100.00;96359.38;10374106;28;20244;-72
2022/09/07 22:02:57;;;;;;;25.95;20.38;;;;;;;16.10;100.00;96353.53;10369549;28;20680;-72
2022/09/07 22:07:57;;;;;;;24.40;17.30;;;;;;;16.19;100.00;96344.41;10368221;28;20197;-73
2022/09/07 22:12:57;;;;;;;24.50;17.33;;;;;;;16.10;100.00;96324.47;10369172;28;20275;-72
2022/09/07 22:17:58;;;;;;;22.40;16.98;;;;;;;16.09;100.00;96314.91;10369044;28;20201;-73
2022/09/07 22:22:58;;;;;;;21.85;17.02;;;;;;;16.02;100.00;96312.25;10368652;28;20199;-73
2022/09/07 22:27:58;;;;;;;23.85;16.65;;;;;;;16.07;100.00;96305.56;10369113;28;20189;-73
2022/09/07 22:32:59;;;;;;;19.60;16.55;;;;;;;16.09;100.00;96296.41;10367964;28;21010;-73
2022/09/07 22:37:59;;;;;;;22.13;17.83;;;;;;;16.11;100.00;96307.59;10368762;28;20304;-73
2022/09/07 22:42:59;;;;;;;26.63;17.73;;;;;;;16.00;100.00;96292.31;10368564;28;20200;-73
2022/09/07 22:48:00;;;;;;;22.05;17.42;;;;;;;16.02;100.00;96303.53;10368516;28;20267;-73
2022/09/07 22:53:01;;;;;;;24.08;18.50;;;;;;;15.98;100.00;96303.09;10368697;28;20320;-73
2022/09/07 22:58:01;;;;;;;23.35;18.63;;;;;;;16.00;100.00;96302.91;10367808;28;20720;-73
2022/09/07 23:03:02;;;;;;;22.30;18.98;;;;;;;15.98;100.00;96297.81;10368353;28;20767;-73